createdAt,value
2017-05-11T00:00:13.449Z,0
2017-05-11T00:00:54.066Z,0
2017-05-11T00:01:34.616Z,0
2017-05-11T00:02:15.218Z,0
2017-05-11T00:02:55.820Z,0
2017-05-11T00:03:36.409Z,0
2017-05-11T00:04:16.979Z,0
2017-05-11T00:04:57.557Z,0
2017-05-11T00:05:38.147Z,0
2017-05-11T00:06:18.768Z,0
2017-05-11T00:06:59.368Z,0
2017-05-11T00:07:39.972Z,0
2017-05-11T00:08:20.540Z,0
2017-05-11T00:09:01.120Z,0
2017-05-11T00:09:41.728Z,0
2017-05-11T00:10:22.337Z,0
2017-05-11T00:11:02.899Z,0
2017-05-11T00:11:43.503Z,0
2017-05-11T00:12:24.089Z,0
2017-05-11T00:13:04.663Z,0
2017-05-11T00:13:45.295Z,0
2017-05-11T00:14:25.869Z,0
2017-05-11T00:15:06.469Z,0
2017-05-11T00:15:47.103Z,0
2017-05-11T00:16:27.710Z,0
2017-05-11T00:17:08.312Z,0
2017-05-11T00:17:48.890Z,0
2017-05-11T00:18:29.527Z,0
2017-05-11T00:19:10.082Z,0
2017-05-11T00:19:50.687Z,0
2017-05-11T00:20:31.277Z,0
2017-05-11T00:21:11.852Z,0
2017-05-11T00:21:52.449Z,0
2017-05-11T00:22:33.035Z,0
2017-05-11T00:23:13.633Z,0
2017-05-11T00:23:54.287Z,0
2017-05-11T00:24:35.066Z,0
2017-05-11T00:25:16.089Z,0
2017-05-11T00:25:56.738Z,0
2017-05-11T00:26:37.305Z,0
2017-05-11T00:27:17.869Z,0
2017-05-11T00:27:58.513Z,0
2017-05-11T00:28:39.121Z,0
2017-05-11T00:29:19.722Z,0
2017-05-11T00:30:00.286Z,0
2017-05-11T00:30:40.861Z,0
2017-05-11T00:31:21.433Z,0
2017-05-11T00:32:02.000Z,0
2017-05-11T00:32:42.574Z,0
2017-05-11T00:33:23.144Z,0
2017-05-11T00:34:03.727Z,0
2017-05-11T00:34:48.179Z,0
2017-05-11T00:35:28.747Z,0
2017-05-11T00:36:09.326Z,0
2017-05-11T00:36:49.926Z,0
2017-05-11T00:37:30.530Z,0
2017-05-11T00:38:11.134Z,0
2017-05-11T00:38:51.735Z,0
2017-05-11T00:39:32.301Z,0
2017-05-11T00:40:12.893Z,0
2017-05-11T00:40:53.471Z,0
2017-05-11T00:41:34.084Z,0
2017-05-11T00:42:15.638Z,0
2017-05-11T00:42:56.222Z,0
2017-05-11T00:43:36.805Z,0
2017-05-11T00:44:17.461Z,0
2017-05-11T00:44:58.027Z,0
2017-05-11T00:45:38.614Z,0
2017-05-11T00:46:19.219Z,0
2017-05-11T00:46:59.801Z,0
2017-05-11T00:47:40.419Z,0
2017-05-11T00:48:20.976Z,0
2017-05-11T00:49:01.565Z,0
2017-05-11T00:49:42.139Z,0
2017-05-11T00:50:22.743Z,0
2017-05-11T00:51:03.359Z,0
2017-05-11T00:51:43.942Z,0
2017-05-11T00:52:24.526Z,0
2017-05-11T00:53:05.128Z,0
2017-05-11T00:53:45.713Z,0
2017-05-11T00:54:26.308Z,0
2017-05-11T00:55:06.893Z,0
2017-05-11T00:55:47.509Z,0
2017-05-11T00:56:28.077Z,0
2017-05-11T00:57:08.653Z,0
2017-05-11T00:57:49.255Z,0
2017-05-11T00:58:29.840Z,0
2017-05-11T00:59:10.423Z,0
2017-05-11T00:59:51.052Z,0
2017-05-11T01:00:31.642Z,0
2017-05-11T01:01:12.220Z,0
2017-05-11T01:01:52.815Z,0
2017-05-11T01:02:33.488Z,0
2017-05-11T01:03:14.063Z,0
2017-05-11T01:03:54.649Z,0
2017-05-11T01:04:35.243Z,0
2017-05-11T01:05:15.885Z,0
2017-05-11T01:05:56.492Z,0
2017-05-11T01:06:37.117Z,0
2017-05-11T01:07:17.752Z,0
2017-05-11T01:07:58.327Z,0
2017-05-11T01:08:38.903Z,0
2017-05-11T01:09:19.476Z,0
2017-05-11T01:10:00.068Z,0
2017-05-11T01:10:40.683Z,0
2017-05-11T01:11:21.258Z,0
2017-05-11T01:12:01.824Z,0
2017-05-11T01:12:42.394Z,0
2017-05-11T01:13:22.961Z,0
2017-05-11T01:14:03.564Z,0
2017-05-11T01:14:44.128Z,0
2017-05-11T01:15:24.729Z,0
2017-05-11T01:16:05.330Z,0
2017-05-11T01:16:45.929Z,0
2017-05-11T01:17:26.525Z,0
2017-05-11T01:18:07.133Z,0
2017-05-11T01:18:47.731Z,0
2017-05-11T01:19:28.295Z,0
2017-05-11T01:20:08.872Z,0
2017-05-11T01:20:49.473Z,0
2017-05-11T01:21:30.049Z,0
2017-05-11T01:22:10.639Z,0
2017-05-11T01:22:51.256Z,0
2017-05-11T01:23:31.805Z,0
2017-05-11T01:24:12.398Z,0
2017-05-11T01:24:52.987Z,0
2017-05-11T01:25:33.564Z,0
2017-05-11T01:26:14.171Z,0
2017-05-11T01:26:54.890Z,0
2017-05-11T01:27:35.501Z,0
2017-05-11T01:28:16.113Z,0
2017-05-11T01:28:56.696Z,0
2017-05-11T01:29:37.283Z,0
2017-05-11T01:30:17.867Z,0
2017-05-11T01:30:58.461Z,0
2017-05-11T01:31:39.052Z,0
2017-05-11T01:32:19.770Z,0
2017-05-11T01:33:00.375Z,0
2017-05-11T01:33:40.956Z,0
2017-05-11T01:34:21.537Z,0
2017-05-11T01:35:02.130Z,0
2017-05-11T01:35:42.750Z,0
2017-05-11T01:36:23.325Z,0
2017-05-11T01:37:03.919Z,0
2017-05-11T01:37:44.508Z,0
2017-05-11T01:38:25.076Z,0
2017-05-11T01:39:05.698Z,0
2017-05-11T01:39:46.328Z,0
2017-05-11T01:40:26.913Z,0
2017-05-11T01:41:07.507Z,0
2017-05-11T01:41:48.108Z,0
2017-05-11T01:42:28.705Z,0
2017-05-11T01:43:09.319Z,0
2017-05-11T01:43:49.905Z,0
2017-05-11T01:44:30.512Z,0
2017-05-11T01:45:11.103Z,0
2017-05-11T01:45:51.706Z,0
2017-05-11T01:46:32.271Z,0
2017-05-11T01:47:12.844Z,0
2017-05-11T01:47:53.470Z,0
2017-05-11T01:48:34.110Z,0
2017-05-11T01:49:14.687Z,0
2017-05-11T01:49:55.278Z,0
2017-05-11T01:50:35.844Z,0
2017-05-11T01:51:16.425Z,0
2017-05-11T01:51:57.024Z,0
2017-05-11T01:52:37.605Z,0
2017-05-11T01:53:18.180Z,0
2017-05-11T01:53:58.761Z,0
2017-05-11T01:54:39.445Z,0
2017-05-11T01:55:20.044Z,0
2017-05-11T01:56:00.618Z,0
2017-05-11T01:56:41.190Z,0
2017-05-11T01:57:21.814Z,0
2017-05-11T01:58:02.382Z,0
2017-05-11T01:58:42.960Z,0
2017-05-11T01:59:23.547Z,0
2017-05-11T02:00:04.169Z,0
2017-05-11T02:00:44.766Z,0
2017-05-11T02:01:25.319Z,0
2017-05-11T02:02:05.912Z,0
2017-05-11T02:02:46.526Z,0
2017-05-11T02:03:27.101Z,0
2017-05-11T02:04:07.707Z,0
2017-05-11T02:04:48.308Z,0
2017-05-11T02:05:28.939Z,0
2017-05-11T02:06:09.484Z,0
2017-05-11T02:06:50.071Z,0
2017-05-11T02:07:30.681Z,0
2017-05-11T02:08:11.276Z,0
2017-05-11T02:08:51.892Z,0
2017-05-11T02:09:32.454Z,0
2017-05-11T02:10:13.043Z,0
2017-05-11T02:10:53.695Z,0
2017-05-11T02:11:34.271Z,0
2017-05-11T02:12:14.846Z,0
2017-05-11T02:12:55.458Z,0
2017-05-11T02:13:36.071Z,0
2017-05-11T02:14:16.663Z,0
2017-05-11T02:14:57.252Z,0
2017-05-11T02:15:37.841Z,0
2017-05-11T02:16:18.464Z,0
2017-05-11T02:16:59.047Z,0
2017-05-11T02:17:39.637Z,0
2017-05-11T02:18:20.198Z,0
2017-05-11T02:19:00.798Z,0
2017-05-11T02:19:41.437Z,0
2017-05-11T02:20:21.990Z,0
2017-05-11T02:21:02.575Z,0
2017-05-11T02:21:43.166Z,0
2017-05-11T02:22:23.763Z,0
2017-05-11T02:23:04.354Z,0
2017-05-11T02:23:44.999Z,0
2017-05-11T02:24:25.639Z,0
2017-05-11T02:25:06.236Z,0
2017-05-11T02:25:46.945Z,0
2017-05-11T02:26:27.545Z,0
2017-05-11T02:27:08.140Z,0
2017-05-11T02:27:48.711Z,0
2017-05-11T02:28:29.304Z,0
2017-05-11T02:29:09.889Z,0
2017-05-11T02:29:50.495Z,0
2017-05-11T02:30:31.092Z,0
2017-05-11T02:31:11.746Z,0
2017-05-11T02:31:52.308Z,0
2017-05-11T02:32:32.921Z,0
2017-05-11T02:33:13.491Z,0
2017-05-11T02:33:54.113Z,0
2017-05-11T02:34:34.711Z,0
2017-05-11T02:35:15.286Z,0
2017-05-11T02:35:55.866Z,0
2017-05-11T02:36:36.449Z,0
2017-05-11T02:37:17.031Z,0
2017-05-11T02:37:57.615Z,0
2017-05-11T02:38:38.233Z,0
2017-05-11T02:39:18.846Z,0
2017-05-11T02:39:59.441Z,0
2017-05-11T02:40:40.042Z,0
2017-05-11T02:41:20.647Z,0
2017-05-11T02:42:01.245Z,0
2017-05-11T02:42:41.875Z,4
2017-05-11T02:43:22.478Z,4
2017-05-11T02:44:03.065Z,4
2017-05-11T02:44:43.664Z,4
2017-05-11T02:45:24.272Z,0
2017-05-11T02:46:04.863Z,0
2017-05-11T02:46:45.449Z,0
2017-05-11T02:47:26.070Z,4
2017-05-11T02:48:06.670Z,4
2017-05-11T02:48:47.272Z,4
2017-05-11T02:49:27.883Z,4
2017-05-11T02:50:08.477Z,4
2017-05-11T02:50:49.085Z,4
2017-05-11T02:51:29.691Z,4
2017-05-11T02:52:10.314Z,8
2017-05-11T02:52:50.898Z,4
2017-05-11T02:53:31.521Z,4
2017-05-11T02:54:12.110Z,8
2017-05-11T02:54:52.698Z,8
2017-05-11T02:55:33.343Z,8
2017-05-11T02:56:13.957Z,8
2017-05-11T02:56:54.553Z,12
2017-05-11T02:57:35.157Z,8
2017-05-11T02:58:15.811Z,12
2017-05-11T02:58:56.417Z,8
2017-05-11T02:59:37.043Z,12
2017-05-11T03:00:17.652Z,12
2017-05-11T03:00:58.486Z,16
2017-05-11T03:01:39.092Z,16
2017-05-11T03:02:19.681Z,16
2017-05-11T03:03:00.293Z,20
2017-05-11T03:03:40.903Z,20
2017-05-11T03:04:21.500Z,20
2017-05-11T03:05:02.140Z,20
2017-05-11T03:05:42.750Z,24
2017-05-11T03:06:23.400Z,24
2017-05-11T03:07:03.972Z,28
2017-05-11T03:07:44.562Z,28
2017-05-11T03:08:25.169Z,28
2017-05-11T03:09:05.767Z,32
2017-05-11T03:09:46.386Z,36
2017-05-11T03:10:26.973Z,36
2017-05-11T03:11:07.569Z,36
2017-05-11T03:11:48.144Z,40
2017-05-11T03:12:28.728Z,44
2017-05-11T03:13:09.333Z,44
2017-05-11T03:13:49.919Z,48
2017-05-11T03:14:30.505Z,52
2017-05-11T03:15:11.083Z,56
2017-05-11T03:15:51.681Z,60
2017-05-11T03:16:32.286Z,60
2017-05-11T03:17:12.936Z,64
2017-05-11T03:17:53.517Z,68
2017-05-11T03:18:34.134Z,72
2017-05-11T03:19:14.800Z,76
2017-05-11T03:19:55.418Z,76
2017-05-11T03:20:36.061Z,84
2017-05-11T03:21:16.661Z,84
2017-05-11T03:21:57.262Z,92
2017-05-11T03:22:37.862Z,96
2017-05-11T03:23:18.458Z,100
2017-05-11T03:23:59.074Z,108
2017-05-11T03:24:39.709Z,116
2017-05-11T03:25:20.344Z,120
2017-05-11T03:26:00.949Z,128
2017-05-11T03:26:41.550Z,136
2017-05-11T03:27:22.138Z,140
2017-05-11T03:28:02.731Z,152
2017-05-11T03:28:43.347Z,156
2017-05-11T03:29:23.949Z,164
2017-05-11T03:30:04.531Z,176
2017-05-11T03:30:45.175Z,184
2017-05-11T03:31:25.775Z,196
2017-05-11T03:32:06.412Z,204
2017-05-11T03:34:19.506Z,240
2017-05-11T03:35:00.086Z,252
2017-05-11T03:35:40.702Z,264
2017-05-11T03:36:21.264Z,276
2017-05-11T03:37:01.909Z,288
2017-05-11T03:37:42.513Z,304
2017-05-11T03:38:23.087Z,316
2017-05-11T03:39:03.655Z,332
2017-05-11T03:39:44.266Z,348
2017-05-11T03:40:24.885Z,364
2017-05-11T03:41:05.455Z,384
2017-05-11T03:41:46.081Z,404
2017-05-11T03:42:26.656Z,416
2017-05-11T03:43:07.233Z,432
2017-05-11T03:43:47.825Z,444
2017-05-11T03:44:28.402Z,456
2017-05-11T03:45:08.978Z,468
2017-05-11T03:45:49.602Z,480
2017-05-11T03:46:30.164Z,496
2017-05-11T03:47:10.766Z,512
2017-05-11T03:47:51.352Z,528
2017-05-11T03:48:31.893Z,548
2017-05-11T03:49:12.509Z,572
2017-05-11T03:49:53.085Z,600
2017-05-11T03:50:33.680Z,628
2017-05-11T03:51:14.271Z,656
2017-05-11T03:51:54.857Z,684
2017-05-11T03:52:35.443Z,712
2017-05-11T03:53:16.009Z,740
2017-05-11T03:53:56.611Z,764
2017-05-11T03:54:37.183Z,788
2017-05-11T03:55:17.781Z,808
2017-05-11T03:55:58.352Z,824
2017-05-11T03:56:38.944Z,844
2017-05-11T03:57:19.590Z,864
2017-05-11T03:58:00.214Z,880
2017-05-11T03:58:40.823Z,900
2017-05-11T03:59:21.387Z,916
2017-05-11T04:00:01.976Z,932
2017-05-11T04:00:42.552Z,948
2017-05-11T04:01:23.158Z,964
2017-05-11T04:02:03.771Z,976
2017-05-11T04:02:44.341Z,992
2017-05-11T04:03:24.934Z,1004
2017-05-11T04:04:05.512Z,1020
2017-05-11T04:04:46.118Z,1040
2017-05-11T04:05:26.688Z,1056
2017-05-11T04:06:07.281Z,1072
2017-05-11T04:06:47.870Z,1084
2017-05-11T04:07:28.466Z,1092
2017-05-11T04:08:09.040Z,1092
2017-05-11T04:08:49.632Z,1100
2017-05-11T04:09:30.222Z,1116
2017-05-11T04:10:10.840Z,1136
2017-05-11T04:10:51.440Z,1144
2017-05-11T04:11:32.048Z,1152
2017-05-11T04:12:12.626Z,1164
2017-05-11T04:12:53.193Z,1176
2017-05-11T04:13:33.867Z,1188
2017-05-11T04:14:14.447Z,1188
2017-05-11T04:14:55.024Z,1196
2017-05-11T04:15:35.600Z,1200
2017-05-11T04:16:16.181Z,1204
2017-05-11T04:16:56.759Z,1216
2017-05-11T04:17:37.371Z,1224
2017-05-11T04:18:17.949Z,1236
2017-05-11T04:18:58.552Z,1256
2017-05-11T04:19:39.148Z,1280
2017-05-11T04:20:19.730Z,1308
2017-05-11T04:21:00.311Z,1336
2017-05-11T04:21:40.881Z,1368
2017-05-11T04:22:21.510Z,1396
2017-05-11T04:23:02.080Z,1416
2017-05-11T04:23:42.661Z,1436
2017-05-11T04:24:23.360Z,1460
2017-05-11T04:25:03.942Z,1476
2017-05-11T04:25:44.540Z,1496
2017-05-11T04:26:25.129Z,1520
2017-05-11T04:27:05.704Z,1540
2017-05-11T04:27:46.317Z,1560
2017-05-11T04:28:26.915Z,1584
2017-05-11T04:29:07.519Z,1608
2017-05-11T04:29:48.134Z,1636
2017-05-11T04:30:28.712Z,1660
2017-05-11T04:31:09.301Z,1692
2017-05-11T04:31:49.901Z,1724
2017-05-11T04:32:30.444Z,1752
2017-05-11T04:33:11.031Z,1792
2017-05-11T04:33:51.614Z,1828
2017-05-11T04:34:32.222Z,1860
2017-05-11T04:35:12.808Z,1892
2017-05-11T04:35:53.403Z,1924
2017-05-11T04:36:33.971Z,1952
2017-05-11T04:37:14.553Z,1972
2017-05-11T04:37:55.118Z,1996
2017-05-11T04:38:35.770Z,2012
2017-05-11T04:39:16.398Z,2036
2017-05-11T04:39:56.983Z,2068
2017-05-11T04:40:37.588Z,2100
2017-05-11T04:41:18.183Z,2132
2017-05-11T04:41:58.754Z,2172
2017-05-11T04:42:39.328Z,2212
2017-05-11T04:43:19.907Z,2252
2017-05-11T04:44:00.487Z,2296
2017-05-11T04:44:41.070Z,2348
2017-05-11T04:45:21.674Z,2392
2017-05-11T04:46:02.288Z,2444
2017-05-11T04:48:35.790Z,2628
2017-05-11T04:50:33.481Z,2788
2017-05-11T04:51:14.059Z,2836
2017-05-11T04:51:54.626Z,2900
2017-05-11T04:52:35.203Z,2956
2017-05-11T04:53:15.803Z,3012
2017-05-11T04:53:56.404Z,3080
2017-05-11T04:54:36.978Z,3152
2017-05-11T04:55:17.548Z,3224
2017-05-11T04:55:58.119Z,3284
2017-05-11T04:56:38.771Z,3332
2017-05-11T04:57:19.440Z,3416
2017-05-11T04:58:00.096Z,3488
2017-05-11T04:58:40.688Z,3556
2017-05-11T04:59:21.299Z,3612
2017-05-11T05:00:01.924Z,3676
2017-05-11T05:00:42.490Z,3720
2017-05-11T05:01:23.063Z,3744
2017-05-11T05:02:03.667Z,3768
2017-05-11T05:02:44.271Z,3812
2017-05-11T05:03:24.861Z,3856
2017-05-11T05:04:05.480Z,3896
2017-05-11T05:04:46.136Z,3944
2017-05-11T05:05:26.769Z,4004
2017-05-11T05:06:07.459Z,4072
2017-05-11T05:06:48.025Z,4156
2017-05-11T05:07:28.646Z,4224
2017-05-11T05:08:09.224Z,4252
2017-05-11T05:08:49.836Z,4252
2017-05-11T05:09:30.428Z,4240
2017-05-11T05:10:11.134Z,4224
2017-05-11T05:10:51.779Z,4232
2017-05-11T05:11:32.409Z,4244
2017-05-11T05:12:12.994Z,4256
2017-05-11T05:12:53.568Z,4348
2017-05-11T05:13:34.204Z,4508
2017-05-11T05:14:14.812Z,4644
2017-05-11T05:14:55.405Z,4724
2017-05-11T05:15:35.980Z,4788
2017-05-11T05:16:16.601Z,4848
2017-05-11T05:16:57.183Z,4868
2017-05-11T05:17:37.778Z,4868
2017-05-11T05:18:18.377Z,4852
2017-05-11T05:18:58.980Z,4920
2017-05-11T05:19:39.568Z,4912
2017-05-11T05:20:20.151Z,4828
2017-05-11T05:21:00.792Z,4884
2017-05-11T05:21:41.399Z,4944
2017-05-11T05:22:22.056Z,4916
2017-05-11T05:23:02.642Z,4924
2017-05-11T05:23:43.236Z,5032
2017-05-11T05:24:23.833Z,5144
2017-05-11T05:25:04.431Z,5248
2017-05-11T05:25:45.000Z,5428
2017-05-11T05:26:25.617Z,5592
2017-05-11T05:27:06.192Z,5780
2017-05-11T05:27:46.806Z,5864
2017-05-11T05:28:27.408Z,5940
2017-05-11T05:29:08.010Z,6172
2017-05-11T05:29:48.620Z,6360
2017-05-11T05:30:29.212Z,6564
2017-05-11T05:31:09.811Z,7024
2017-05-11T05:31:50.416Z,8272
2017-05-11T05:32:31.039Z,11784
2017-05-11T05:33:11.626Z,15840
2017-05-11T05:33:52.282Z,20416
2017-05-11T05:34:32.899Z,27264
2017-05-11T05:35:13.492Z,36640
2017-05-11T05:35:54.086Z,36736
2017-05-11T05:36:34.658Z,36256
2017-05-11T05:37:15.238Z,37120
2017-05-11T05:37:55.881Z,36992
2017-05-11T05:38:36.580Z,40064
2017-05-11T05:39:17.157Z,39104
2017-05-11T05:39:57.797Z,40544
2017-05-11T05:40:38.394Z,38432
2017-05-11T05:41:18.979Z,37920
2017-05-11T05:41:59.565Z,40992
2017-05-11T05:42:40.223Z,43712
2017-05-11T05:43:20.809Z,48064
2017-05-11T05:44:01.435Z,53152
2017-05-11T05:44:41.997Z,56320
2017-05-11T05:45:22.651Z,58816
2017-05-11T05:46:03.243Z,59360
2017-05-11T05:46:43.836Z,61792
2017-05-11T05:47:24.444Z,65600
2017-05-11T05:48:05.042Z,67200
2017-05-11T05:48:45.695Z,65888
2017-05-11T05:49:26.276Z,63456
2017-05-11T05:50:06.857Z,61280
2017-05-11T05:50:47.495Z,58432
2017-05-11T05:51:28.103Z,58624
2017-05-11T05:52:08.690Z,58336
2017-05-11T05:52:49.294Z,59520
2017-05-11T05:53:29.920Z,58784
2017-05-11T05:54:10.558Z,57696
2017-05-11T05:54:51.162Z,58304
2017-05-11T05:55:31.856Z,56832
2017-05-11T05:56:12.466Z,58816
2017-05-11T05:56:53.096Z,56352
2017-05-11T05:57:33.728Z,61920
2017-05-11T05:58:14.345Z,64736
2017-05-11T05:58:55.009Z,68032
2017-05-11T05:59:35.638Z,66016
2017-05-11T06:00:16.286Z,58080
2017-05-11T06:00:56.927Z,60992
2017-05-11T06:01:37.539Z,65504
2017-05-11T06:02:18.229Z,63904
2017-05-11T06:02:58.831Z,63680
2017-05-11T06:03:39.414Z,65696
2017-05-11T06:04:20.065Z,64832
2017-05-11T06:05:00.675Z,60704
2017-05-11T06:05:41.267Z,54944
2017-05-11T06:06:21.890Z,54240
2017-05-11T06:07:02.477Z,54944
2017-05-11T06:07:43.105Z,51584
2017-05-11T06:08:23.705Z,52512
2017-05-11T06:09:04.355Z,50848
2017-05-11T06:09:44.965Z,51616
2017-05-11T06:10:25.611Z,58656
2017-05-11T06:11:06.225Z,64192
2017-05-11T06:11:46.841Z,68480
2017-05-11T06:12:27.466Z,69536
2017-05-11T06:13:08.035Z,72544
2017-05-11T06:13:48.659Z,75936
2017-05-11T06:14:29.259Z,76224
2017-05-11T06:15:09.860Z,77888
2017-05-11T06:15:50.496Z,78016
2017-05-11T06:16:31.074Z,79680
2017-05-11T06:17:11.700Z,78752
2017-05-11T06:17:52.292Z,64224
2017-05-11T06:18:32.965Z,74944
2017-05-11T06:19:13.576Z,73888
2017-05-11T06:19:54.185Z,72192
2017-05-11T06:20:34.798Z,71104
2017-05-11T06:21:15.437Z,73120
2017-05-11T06:21:56.035Z,73856
2017-05-11T06:22:36.685Z,72032
2017-05-11T06:23:17.311Z,72768
2017-05-11T06:23:57.941Z,74976
2017-05-11T06:24:38.532Z,73728
2017-05-11T06:25:19.167Z,73856
2017-05-11T06:25:59.779Z,73472
2017-05-11T06:26:40.384Z,76192
2017-05-11T06:27:20.993Z,74848
2017-05-11T06:28:01.781Z,71552
2017-05-11T06:28:42.386Z,71168
2017-05-11T06:29:22.995Z,70944
2017-05-11T06:30:03.584Z,69472
2017-05-11T06:30:44.181Z,71680
2017-05-11T06:31:24.787Z,62720
2017-05-11T06:32:05.410Z,71680
2017-05-11T06:32:46.096Z,65504
2017-05-11T06:33:26.708Z,69024
2017-05-11T06:34:07.315Z,68928
2017-05-11T06:34:47.911Z,68864
2017-05-11T06:35:28.533Z,67488
2017-05-11T06:36:09.130Z,74816
2017-05-11T06:36:49.748Z,74048
2017-05-11T06:37:30.354Z,72832
2017-05-11T06:38:10.969Z,75232
2017-05-11T06:38:51.591Z,78656
2017-05-11T06:39:32.183Z,79808
2017-05-11T06:40:12.794Z,77248
2017-05-11T06:40:53.404Z,79008
2017-05-11T06:41:33.983Z,80544
2017-05-11T06:42:14.616Z,79296
2017-05-11T06:42:55.230Z,74752
2017-05-11T06:43:35.859Z,72992
2017-05-11T06:44:16.469Z,73216
2017-05-11T06:44:57.088Z,74496
2017-05-11T06:45:37.673Z,76384
2017-05-11T06:46:18.295Z,79808
2017-05-11T06:46:58.953Z,80448
2017-05-11T06:47:39.543Z,79488
2017-05-11T06:48:20.123Z,79264
2017-05-11T06:49:00.757Z,79136
2017-05-11T06:49:41.355Z,78880
2017-05-11T06:50:21.916Z,78720
2017-05-11T06:51:02.494Z,78240
2017-05-11T06:51:43.078Z,76672
2017-05-11T06:52:23.703Z,76000
2017-05-11T06:53:04.310Z,75232
2017-05-11T06:53:44.904Z,74912
2017-05-11T06:54:25.495Z,72576
2017-05-11T06:55:06.080Z,73504
2017-05-11T06:55:46.659Z,72256
2017-05-11T06:56:27.258Z,74880
2017-05-11T06:57:07.841Z,74976
2017-05-11T06:57:48.497Z,73312
2017-05-11T06:58:29.148Z,74208
2017-05-11T06:59:09.785Z,77088
2017-05-11T06:59:50.423Z,78432
2017-05-11T07:00:30.989Z,76832
2017-05-11T07:01:11.573Z,78400
2017-05-11T07:01:52.202Z,75328
2017-05-11T07:02:32.809Z,76416
2017-05-11T07:03:13.412Z,76960
2017-05-11T07:03:53.988Z,77280
2017-05-11T07:04:34.570Z,77920
2017-05-11T07:05:15.180Z,79264
2017-05-11T07:05:55.787Z,79200
2017-05-11T07:06:36.399Z,79360
2017-05-11T07:07:16.993Z,78688
2017-05-11T07:07:57.598Z,75680
2017-05-11T07:08:38.206Z,72992
2017-05-11T07:09:18.812Z,74272
2017-05-11T07:09:59.421Z,75648
2017-05-11T07:10:40.016Z,76512
2017-05-11T07:11:20.615Z,78464
2017-05-11T07:12:01.198Z,78976
2017-05-11T07:12:41.801Z,81088
2017-05-11T07:13:22.432Z,79776
2017-05-11T07:14:03.049Z,79584
2017-05-11T07:14:43.651Z,79520
2017-05-11T07:15:24.259Z,80544
2017-05-11T07:16:04.836Z,59264
2017-05-11T07:16:45.412Z,70912
2017-05-11T07:17:26.013Z,61760
2017-05-11T07:18:06.618Z,61600
2017-05-11T07:18:47.207Z,67392
2017-05-11T07:19:27.784Z,62080
2017-05-11T07:20:08.390Z,57856
2017-05-11T07:20:49.003Z,62880
2017-05-11T07:21:29.587Z,61376
2017-05-11T07:22:10.184Z,70560
2017-05-11T07:22:50.780Z,64704
2017-05-11T07:23:31.361Z,65632
2017-05-11T07:24:11.964Z,65888
2017-05-11T07:24:52.538Z,53600
2017-05-11T07:25:33.153Z,53280
2017-05-11T07:26:13.736Z,58080
2017-05-11T07:26:54.335Z,66112
2017-05-11T07:27:34.935Z,63392
2017-05-11T07:28:15.539Z,59904
2017-05-11T07:28:56.129Z,64064
2017-05-11T07:29:36.705Z,67584
2017-05-11T07:30:17.292Z,79040
2017-05-11T07:30:57.885Z,76832
2017-05-11T07:31:38.477Z,74560
2017-05-11T07:32:19.084Z,75712
2017-05-11T07:32:59.675Z,73408
2017-05-11T07:33:40.261Z,69408
2017-05-11T07:34:20.840Z,72640
2017-05-11T07:35:01.458Z,74464
2017-05-11T07:35:42.064Z,72032
2017-05-11T07:36:22.690Z,74624
2017-05-11T07:37:03.299Z,77440
2017-05-11T07:37:43.907Z,81184
2017-05-11T07:38:24.517Z,80096
2017-05-11T07:39:05.110Z,79200
2017-05-11T07:39:45.739Z,78080
2017-05-11T07:40:26.341Z,77632
2017-05-11T07:41:06.917Z,75520
2017-05-11T07:41:47.494Z,76448
2017-05-11T07:42:28.089Z,75968
2017-05-11T07:43:08.712Z,74144
2017-05-11T07:43:49.339Z,74912
2017-05-11T07:44:29.938Z,76160
2017-05-11T07:45:10.552Z,75072
2017-05-11T07:45:51.142Z,72832
2017-05-11T07:46:31.716Z,70080
2017-05-11T07:47:12.307Z,68352
2017-05-11T07:47:52.901Z,67360
2017-05-11T07:48:33.523Z,68160
2017-05-11T07:49:14.132Z,70528
2017-05-11T07:49:54.821Z,70336
2017-05-11T07:50:35.396Z,70816
2017-05-11T07:51:16.037Z,70464
2017-05-11T07:51:56.621Z,71936
2017-05-11T07:52:37.236Z,74176
2017-05-11T07:53:17.811Z,72704
2017-05-11T07:53:58.392Z,72000
2017-05-11T07:54:38.987Z,73632
2017-05-11T07:55:19.591Z,73920
2017-05-11T07:56:00.189Z,69728
2017-05-11T07:56:40.786Z,63520
2017-05-11T07:57:21.376Z,67616
2017-05-11T07:58:02.057Z,72672
2017-05-11T07:58:42.657Z,73056
2017-05-11T07:59:23.252Z,56832
2017-05-11T08:00:03.891Z,34848
2017-05-11T08:00:44.469Z,22688
2017-05-11T08:01:25.070Z,21600
2017-05-11T08:02:05.729Z,20928
2017-05-11T08:02:46.330Z,20608
2017-05-11T08:03:26.908Z,20448
2017-05-11T08:04:07.514Z,19808
2017-05-11T08:04:48.111Z,19104
2017-05-11T08:05:28.705Z,18464
2017-05-11T08:06:09.331Z,17600
2017-05-11T08:06:49.942Z,16736
2017-05-11T08:07:30.544Z,16832
2017-05-11T08:08:11.137Z,16544
2017-05-11T08:08:51.735Z,16032
2017-05-11T08:09:32.309Z,16416
2017-05-11T08:10:12.896Z,16352
2017-05-11T08:10:53.495Z,15448
2017-05-11T08:11:34.111Z,15700
2017-05-11T08:12:14.706Z,15600
2017-05-11T08:12:55.366Z,15452
2017-05-11T08:13:35.961Z,15404
2017-05-11T08:14:16.563Z,14876
2017-05-11T08:14:57.253Z,14996
2017-05-11T08:15:37.819Z,14900
2017-05-11T08:16:18.416Z,14660
2017-05-11T08:16:59.077Z,14340
2017-05-11T08:17:39.878Z,13968
2017-05-11T08:18:20.486Z,13852
2017-05-11T08:19:01.131Z,13616
2017-05-11T08:19:41.773Z,13596
2017-05-11T08:20:22.351Z,13420
2017-05-11T08:21:02.946Z,13276
2017-05-11T08:21:43.549Z,13068
2017-05-11T08:22:24.150Z,12880
2017-05-11T08:23:04.750Z,12692
2017-05-11T08:23:45.365Z,12392
2017-05-11T08:24:25.986Z,12232
2017-05-11T08:25:06.560Z,12088
2017-05-11T08:25:47.160Z,11960
2017-05-11T08:26:27.786Z,11792
2017-05-11T08:27:08.360Z,11596
2017-05-11T08:27:49.041Z,11396
2017-05-11T08:28:29.624Z,11304
2017-05-11T08:29:10.221Z,11200
2017-05-11T08:29:50.825Z,11084
2017-05-11T08:30:31.463Z,11004
2017-05-11T08:31:12.041Z,10900
2017-05-11T08:31:52.630Z,10772
2017-05-11T08:32:33.201Z,10628
2017-05-11T08:33:13.790Z,10480
2017-05-11T08:33:54.425Z,10332
2017-05-11T08:34:34.995Z,10204
2017-05-11T08:35:15.626Z,10056
2017-05-11T08:35:56.223Z,9940
2017-05-11T08:36:38.034Z,9816
2017-05-11T08:37:18.704Z,9712
2017-05-11T08:37:59.289Z,9644
2017-05-11T08:38:39.885Z,9516
2017-05-11T08:39:20.495Z,9396
2017-05-11T08:40:01.097Z,9288
2017-05-11T08:40:41.686Z,9192
2017-05-11T08:41:22.316Z,9088
2017-05-11T08:42:02.891Z,8984
2017-05-11T08:42:43.495Z,8876
2017-05-11T08:43:24.111Z,8784
2017-05-11T08:44:04.708Z,8676
2017-05-11T08:44:45.318Z,8584
2017-05-11T08:45:25.908Z,8392
2017-05-11T08:46:06.502Z,8308
2017-05-11T08:46:47.108Z,8348
2017-05-11T08:47:27.692Z,8248
2017-05-11T08:48:08.278Z,8216
2017-05-11T08:48:49.633Z,8056
2017-05-11T08:49:30.291Z,8052
2017-05-11T08:50:10.861Z,8068
2017-05-11T08:50:51.440Z,7932
2017-05-11T08:51:32.020Z,7916
2017-05-11T08:52:12.652Z,7952
2017-05-11T08:52:53.247Z,7836
2017-05-11T08:53:33.850Z,7772
2017-05-11T08:54:14.464Z,7764
2017-05-11T08:54:55.037Z,7688
2017-05-11T08:55:35.627Z,7736
2017-05-11T08:56:16.199Z,7676
2017-05-11T08:56:56.769Z,7632
2017-05-11T08:57:37.359Z,7512
2017-05-11T08:58:17.978Z,7436
2017-05-11T08:58:58.554Z,7396
2017-05-11T08:59:39.140Z,7368
2017-05-11T09:00:19.734Z,7324
2017-05-11T09:01:00.449Z,7228
2017-05-11T09:01:41.118Z,7168
2017-05-11T09:02:21.730Z,7120
2017-05-11T09:03:02.330Z,7040
2017-05-11T09:03:42.975Z,6840
2017-05-11T09:04:23.553Z,6720
2017-05-11T09:05:04.139Z,6744
2017-05-11T09:05:44.759Z,6764
2017-05-11T09:06:25.351Z,6804
2017-05-11T09:07:05.984Z,6768
2017-05-11T09:07:46.579Z,6756
2017-05-11T09:08:27.156Z,6768
2017-05-11T09:09:07.748Z,6760
2017-05-11T09:09:48.337Z,6720
2017-05-11T09:10:28.943Z,6732
2017-05-11T09:11:09.540Z,6704
2017-05-11T09:11:50.169Z,6664
2017-05-11T09:12:30.746Z,6592
2017-05-11T09:13:11.379Z,6536
2017-05-11T09:13:51.987Z,6488
2017-05-11T09:14:32.570Z,6436
2017-05-11T09:15:13.180Z,6432
2017-05-11T09:15:53.744Z,6404
2017-05-11T09:16:34.333Z,6364
2017-05-11T09:17:14.937Z,6332
2017-05-11T09:17:55.536Z,6296
2017-05-11T09:18:36.141Z,6260
2017-05-11T09:19:16.732Z,6244
2017-05-11T09:19:57.365Z,6240